createdAt,value
2023-03-19T00:00:44.099Z,100270.75
2023-03-19T00:03:11.204Z,100267.34
2023-03-19T00:05:38.232Z,100270.34
2023-03-19T00:08:05.819Z,100271.28
2023-03-19T00:10:32.825Z,100276.78
2023-03-19T00:12:59.792Z,100274.38
2023-03-19T00:15:26.733Z,100283.28
2023-03-19T00:17:54.761Z,100282.56
2023-03-19T00:20:22.584Z,100281.78
2023-03-19T00:22:49.443Z,100282.84
2023-03-19T00:25:16.496Z,100279.47
2023-03-19T00:27:44.772Z,100278.94
2023-03-19T00:30:12.306Z,100282.44
2023-03-19T00:32:39.798Z,100285.31
2023-03-19T00:35:07.463Z,100292.50
2023-03-19T00:37:35.359Z,100296.09
2023-03-19T00:40:02.661Z,100292.72
2023-03-19T00:42:30.459Z,100296.44
2023-03-19T00:44:57.448Z,100311.47
2023-03-19T00:47:24.527Z,100308.09
2023-03-19T00:49:51.556Z,100306.38
2023-03-19T00:52:18.505Z,100309.16
2023-03-19T00:54:45.695Z,100308.38
2023-03-19T00:57:12.586Z,100315.50
2023-03-19T00:59:39.488Z,100312.94
2023-03-19T01:02:06.499Z,100313.06
2023-03-19T01:04:33.445Z,100308.72
2023-03-19T01:07:03.790Z,100316.66
2023-03-19T01:09:30.767Z,100318.47
2023-03-19T01:11:57.763Z,100327.38
2023-03-19T01:14:24.974Z,100320.38
2023-03-19T01:16:52.251Z,100321.22
2023-03-19T01:19:20.144Z,100317.84
2023-03-19T01:21:47.252Z,100310.81
2023-03-19T01:24:14.205Z,100312.53
2023-03-19T01:26:41.473Z,100309.97
2023-03-19T01:29:09.058Z,100300.34
2023-03-19T01:31:37.573Z,100314.41
2023-03-19T01:34:04.873Z,100317.19
2023-03-19T01:36:34.841Z,100312.00
2023-03-19T01:39:01.929Z,100321.63
2023-03-19T01:41:28.865Z,100322.69
2023-03-19T01:43:55.933Z,100329.69
2023-03-19T01:46:34.694Z,100337.72
2023-03-19T01:49:06.550Z,100336.91
2023-03-19T01:51:38.697Z,100348.31
2023-03-19T01:54:13.913Z,100359.97
2023-03-19T01:56:42.198Z,100359.13
2023-03-19T01:59:40.836Z,100359.97
2023-03-19T02:02:27.021Z,100364.44
2023-03-19T02:05:08.605Z,100364.44
2023-03-19T02:07:37.661Z,100363.69
2023-03-19T02:10:08.646Z,100365.47
2023-03-19T02:12:36.080Z,100372.59
2023-03-19T02:15:03.019Z,100375.25
2023-03-19T02:17:30.675Z,100369.09
2023-03-19T02:20:09.029Z,100367.50
2023-03-19T02:22:40.364Z,100372.69
2023-03-19T02:25:25.360Z,100366.53
2023-03-19T02:27:52.422Z,100366.53
2023-03-19T02:30:29.586Z,100365.59
2023-03-19T02:32:56.585Z,100362.94
2023-03-19T02:35:23.544Z,100363.06
2023-03-19T02:37:50.589Z,100371.84
2023-03-19T02:40:29.614Z,100375.47
2023-03-19T02:42:56.585Z,100371.84
2023-03-19T02:45:28.269Z,100376.31
2023-03-19T02:47:55.180Z,100378.84
2023-03-19T02:50:22.014Z,100376.19
2023-03-19T02:52:48.806Z,100379.78
2023-03-19T02:55:18.591Z,100386.78
2023-03-19T02:57:45.933Z,100380.63
2023-03-19T03:00:13.480Z,100384.16
2023-03-19T03:02:40.955Z,100396.66
2023-03-19T03:05:09.413Z,100403.63
2023-03-19T03:07:36.492Z,100407.06
2023-03-19T03:10:03.628Z,100405.34
2023-03-19T03:12:30.541Z,100416.81
2023-03-19T03:14:57.398Z,100409.78
2023-03-19T03:17:24.533Z,100411.50
2023-03-19T03:19:51.867Z,100412.34
2023-03-19T03:22:19.174Z,100415.00
2023-03-19T03:24:46.053Z,100419.34
2023-03-19T03:27:12.905Z,100421.97
2023-03-19T03:29:39.763Z,100428.25
2023-03-19T03:32:07.460Z,100429.94
2023-03-19T03:34:34.440Z,100431.66
2023-03-19T03:37:01.291Z,100446.31
2023-03-19T03:39:28.739Z,100449.69
2023-03-19T03:41:55.761Z,100447.91
2023-03-19T03:44:22.642Z,100460.19
2023-03-19T03:46:49.720Z,100455.75
2023-03-19T03:49:16.516Z,100456.59
2023-03-19T03:51:43.407Z,100464.53
2023-03-19T03:54:10.218Z,100464.53
2023-03-19T03:56:37.558Z,100460.09
2023-03-19T03:59:05.083Z,100460.19
2023-03-19T04:01:31.891Z,100462.63
2023-03-19T04:03:58.904Z,100478.53
2023-03-19T04:06:27.711Z,100476.84
2023-03-19T04:08:54.649Z,100485.84
2023-03-19T04:11:21.579Z,100490.19
2023-03-19T04:13:48.388Z,100492.75
2023-03-19T04:16:15.903Z,100490.13
2023-03-19T04:18:42.904Z,100494.44
2023-03-19T04:21:09.837Z,100502.31
2023-03-19T04:23:36.677Z,100488.31
2023-03-19T04:26:05.616Z,100484.69
2023-03-19T04:28:33.107Z,100480.38
2023-03-19T04:31:05.692Z,100488.19
2023-03-19T04:33:33.722Z,100490.84
2023-03-19T04:36:00.758Z,100495.31
2023-03-19T04:38:28.042Z,100499.75
2023-03-19T04:40:56.439Z,100497.88
2023-03-19T04:43:24.038Z,100494.38
2023-03-19T04:45:51.343Z,100504.09
2023-03-19T04:48:18.703Z,100501.66
2023-03-19T04:50:47.439Z,100500.59
2023-03-19T04:53:14.375Z,100503.16
2023-03-19T04:55:41.300Z,100510.16
2023-03-19T04:58:09.410Z,100506.75
2023-03-19T05:00:36.658Z,100513.78
2023-03-19T05:03:03.610Z,100523.53
2023-03-19T05:05:30.541Z,100533.25
2023-03-19T05:07:57.611Z,100535.81
2023-03-19T05:10:24.540Z,100541.09
2023-03-19T05:12:51.382Z,100541.97
2023-03-19T05:15:18.251Z,100550.03
2023-03-19T05:17:45.216Z,100552.69
2023-03-19T05:20:13.003Z,100555.31
2023-03-19T05:22:40.038Z,100562.41
2023-03-19T05:25:07.206Z,100557.13
2023-03-19T05:27:34.421Z,100553.53
2023-03-19T05:30:01.740Z,100549.16
2023-03-19T05:32:28.998Z,100557.88
2023-03-19T05:34:55.864Z,100554.47
2023-03-19T05:37:22.838Z,100559.78
2023-03-19T05:39:49.748Z,100558.84
2023-03-19T05:42:16.908Z,100569.44
2023-03-19T05:44:44.115Z,100567.59
2023-03-19T05:47:12.422Z,100569.50
2023-03-19T05:49:39.199Z,100576.81
2023-03-19T05:52:06.429Z,100574.06
2023-03-19T05:54:33.315Z,100581.16
2023-03-19T05:57:00.124Z,100581.91
2023-03-19T05:59:26.925Z,100603.13
2023-03-19T06:01:53.812Z,100603.97
2023-03-19T06:04:20.787Z,100609.19
2023-03-19T06:06:47.781Z,100608.16
2023-03-19T06:09:14.590Z,100613.16
2023-03-19T06:11:42.188Z,100606.91
2023-03-19T06:14:09.338Z,100610.06
2023-03-19T06:16:36.650Z,100615.91
2023-03-19T06:19:04.275Z,100616.97
2023-03-19T06:21:31.786Z,100627.09
2023-03-19T06:23:59.088Z,100633.06
2023-03-19T06:26:26.698Z,100635.28
2023-03-19T06:28:54.176Z,100627.44
2023-03-19T06:31:21.646Z,100636.06
2023-03-19T06:33:49.548Z,100627.81
2023-03-19T06:36:17.854Z,100630.56
2023-03-19T06:38:44.804Z,100631.34
2023-03-19T06:41:11.876Z,100639.28
2023-03-19T06:43:41.595Z,100638.31
2023-03-19T06:46:11.525Z,100647.88
2023-03-19T06:48:38.904Z,100643.44
2023-03-19T06:51:05.976Z,100626.59
2023-03-19T06:53:32.858Z,100657.44
2023-03-19T06:55:59.684Z,100643.25
2023-03-19T06:58:27.240Z,100681.50
2023-03-19T07:00:54.463Z,100671.59
2023-03-19T07:03:21.926Z,100666.84
2023-03-19T07:05:51.408Z,100682.16
2023-03-19T07:08:18.830Z,100657.72
2023-03-19T07:10:45.970Z,100655.19
2023-03-19T07:13:13.230Z,100663.53
2023-03-19T07:15:40.482Z,100670.34
2023-03-19T07:18:07.408Z,100670.16
2023-03-19T07:20:34.438Z,100675.09
2023-03-19T07:23:01.585Z,100694.28
2023-03-19T07:25:28.475Z,100698.53
2023-03-19T07:27:56.209Z,100704.81
2023-03-19T07:30:23.867Z,100705.44
2023-03-19T07:32:50.791Z,100713.31
2023-03-19T07:35:17.998Z,100712.16
2023-03-19T07:37:44.943Z,100721.66
2023-03-19T07:40:12.109Z,100716.25
2023-03-19T07:42:38.995Z,100725.63
2023-03-19T07:45:06.986Z,100727.34
2023-03-19T07:47:33.936Z,100742.97
2023-03-19T07:50:00.917Z,100735.84
2023-03-19T07:52:27.952Z,100746.28
2023-03-19T07:54:54.888Z,100766.53
2023-03-19T07:57:22.126Z,100767.31
2023-03-19T07:59:49.210Z,100764.44
2023-03-19T08:02:19.847Z,100756.41
2023-03-19T08:04:48.273Z,100774.78
2023-03-19T08:07:16.188Z,100765.78
2023-03-19T08:09:43.191Z,100751.38
2023-03-19T08:12:10.565Z,100746.75
2023-03-19T08:14:37.494Z,100751.00
2023-03-19T08:17:04.609Z,100749.88
2023-03-19T08:19:32.182Z,100749.78
2023-03-19T08:21:59.107Z,100753.00
2023-03-19T08:24:26.139Z,100761.34
2023-03-19T08:26:53.798Z,100767.13
2023-03-19T08:29:21.223Z,100760.34
2023-03-19T08:31:48.286Z,100757.19
2023-03-19T08:34:15.465Z,100752.47
2023-03-19T08:36:42.364Z,100764.97
2023-03-19T08:39:09.444Z,100776.56
2023-03-19T08:41:36.613Z,100780.41
2023-03-19T08:44:04.040Z,100787.91
2023-03-19T08:46:31.582Z,100801.53
2023-03-19T08:48:58.525Z,100797.50
2023-03-19T08:51:26.567Z,100804.97
2023-03-19T08:53:54.022Z,100797.56
2023-03-19T08:56:21.109Z,100805.25
2023-03-19T08:58:48.290Z,100808.22
2023-03-19T09:01:15.457Z,100810.50
2023-03-19T09:03:45.323Z,100816.09
2023-03-19T09:06:14.747Z,100823.53
2023-03-19T09:08:42.487Z,100819.63
2023-03-19T09:11:10.629Z,100833.34
2023-03-19T09:13:37.887Z,100843.63
2023-03-19T09:16:05.437Z,100834.91
2023-03-19T09:18:33.312Z,100843.84
2023-03-19T09:21:01.108Z,100834.25
2023-03-19T09:23:28.678Z,100838.63
2023-03-19T09:25:56.490Z,100854.69
2023-03-19T09:28:24.048Z,100855.53
2023-03-19T09:30:52.490Z,100861.69
2023-03-19T09:33:21.580Z,100855.13
2023-03-19T09:35:54.220Z,100852.16
2023-03-19T09:38:22.572Z,100851.00
2023-03-19T09:41:07.595Z,100858.78
2023-03-19T09:43:52.693Z,100850.50
2023-03-19T09:46:24.261Z,100858.34
2023-03-19T09:49:17.752Z,100852.84
2023-03-19T09:51:52.975Z,100854.34
2023-03-19T09:54:33.854Z,100855.28
2023-03-19T09:57:01.579Z,100853.38
2023-03-19T09:59:30.103Z,100847.75
2023-03-19T10:02:04.946Z,100842.66
2023-03-19T10:04:39.887Z,100838.38
2023-03-19T10:07:18.497Z,100841.25
2023-03-19T10:10:15.949Z,100838.59
2023-03-19T10:12:52.039Z,100841.13
2023-03-19T10:15:21.624Z,100838.59
2023-03-19T10:17:57.518Z,100836.78
2023-03-19T10:20:44.608Z,100838.78
2023-03-19T10:23:27.985Z,100846.03
2023-03-19T10:25:58.825Z,100849.56
2023-03-19T10:28:29.119Z,100855.34
2023-03-19T10:31:21.678Z,100848.84
2023-03-19T10:34:26.075Z,100851.16
2023-03-19T10:37:05.004Z,100849.59
2023-03-19T10:39:38.391Z,100843.38
2023-03-19T10:42:36.030Z,100850.38
2023-03-19T10:45:11.926Z,100860.91
2023-03-19T10:47:41.201Z,100863.56
2023-03-19T10:50:15.335Z,100871.44
2023-03-19T10:52:44.028Z,100866.97
2023-03-19T10:55:16.947Z,100873.91
2023-03-19T10:57:46.421Z,100878.03
2023-03-19T11:00:24.930Z,100875.31
2023-03-19T11:02:54.659Z,100867.22
2023-03-19T11:05:21.479Z,100871.59
2023-03-19T11:07:56.874Z,100876.06
2023-03-19T11:10:27.387Z,100875.72
2023-03-19T11:13:01.062Z,100876.41
2023-03-19T11:15:39.061Z,100880.09
2023-03-19T11:18:40.497Z,100887.03
2023-03-19T11:21:27.655Z,100882.78
2023-03-19T11:24:00.921Z,100878.31
2023-03-19T11:26:29.019Z,100880.31
2023-03-19T11:29:03.683Z,100883.72
2023-03-19T11:31:38.741Z,100876.78
2023-03-19T11:34:08.703Z,100873.16
2023-03-19T11:36:43.593Z,100873.31
2023-03-19T11:39:26.024Z,100876.09
2023-03-19T11:42:06.173Z,100870.41
2023-03-19T11:44:40.512Z,100867.19
2023-03-19T11:47:27.707Z,100874.78
2023-03-19T11:50:08.008Z,100865.75
2023-03-19T11:53:05.855Z,100866.06
2023-03-19T11:55:49.963Z,100863.50
2023-03-19T11:58:45.943Z,100868.31
2023-03-19T12:02:17.731Z,100872.66
2023-03-19T12:05:05.835Z,100877.56
2023-03-19T12:08:04.754Z,100875.81
2023-03-19T12:10:40.664Z,100876.75
2023-03-19T12:13:20.520Z,100872.72
2023-03-19T12:16:13.873Z,100869.59
2023-03-19T12:18:52.941Z,100870.75
2023-03-19T12:21:34.768Z,100868.56
2023-03-19T12:24:28.763Z,100870.72
2023-03-19T12:27:17.391Z,100875.63
2023-03-19T12:30:01.358Z,100882.34
2023-03-19T12:33:17.969Z,100878.41
2023-03-19T12:35:50.295Z,100881.41
2023-03-19T12:38:36.487Z,100872.03
2023-03-19T12:41:25.320Z,100868.97
2023-03-19T12:44:12.539Z,100870.38
2023-03-19T12:47:03.010Z,100871.84
2023-03-19T12:49:52.660Z,100869.66
2023-03-19T12:52:24.396Z,100868.25
2023-03-19T12:55:22.289Z,100865.38
2023-03-19T12:57:51.514Z,100854.19
2023-03-19T13:00:35.888Z,100863.34
2023-03-19T13:03:39.899Z,100867.50
2023-03-19T13:06:09.365Z,100872.25
2023-03-19T13:08:45.170Z,100871.97
2023-03-19T13:11:18.019Z,100871.63
2023-03-19T13:14:02.559Z,100861.63
2023-03-19T13:16:49.739Z,100854.34
2023-03-19T13:19:32.420Z,100856.69
2023-03-19T13:22:04.719Z,100853.94
2023-03-19T13:24:37.060Z,100869.44
2023-03-19T13:27:06.955Z,100870.94
2023-03-19T13:29:37.166Z,100863.69
2023-03-19T13:32:22.326Z,100863.25
2023-03-19T13:34:49.832Z,100864.72
2023-03-19T13:37:22.140Z,100863.63
2023-03-19T13:39:49.961Z,100859.06
2023-03-19T13:42:41.607Z,100860.88
2023-03-19T13:45:20.470Z,100864.28
2023-03-19T13:47:49.929Z,100863.88
2023-03-19T13:50:25.071Z,100867.25
2023-03-19T13:52:57.408Z,100858.19
2023-03-19T13:55:33.157Z,100867.78
2023-03-19T13:58:13.087Z,100868.28
2023-03-19T14:00:43.273Z,100864.66
2023-03-19T14:03:22.685Z,100866.59
2023-03-19T14:05:53.146Z,100867.44
2023-03-19T14:08:24.469Z,100866.59
2023-03-19T14:10:55.366Z,100853.00
2023-03-19T14:13:25.390Z,100863.41
2023-03-19T14:15:53.917Z,100859.69
2023-03-19T14:18:24.819Z,100865.13
2023-03-19T14:20:53.944Z,100864.03
2023-03-19T14:23:39.588Z,100857.47
2023-03-19T14:26:23.550Z,100858.53
2023-03-19T14:29:21.802Z,100847.34
2023-03-19T14:31:56.788Z,100850.09
2023-03-19T14:34:29.528Z,100855.53
2023-03-19T14:37:02.608Z,100845.09
2023-03-19T14:39:33.100Z,100850.44
2023-03-19T14:42:13.354Z,100862.81
2023-03-19T14:44:40.232Z,100859.50
2023-03-19T14:47:25.872Z,100862.41
2023-03-19T14:50:01.933Z,100859.31
2023-03-19T14:52:44.540Z,100856.88
2023-03-19T14:55:14.969Z,100847.34
2023-03-19T14:57:43.729Z,100843.88
2023-03-19T15:00:19.530Z,100833.50
2023-03-19T15:02:50.499Z,100822.97
2023-03-19T15:05:31.023Z,100822.03
2023-03-19T15:08:03.847Z,100810.72
2023-03-19T15:10:48.827Z,100809.94
2023-03-19T15:13:50.366Z,100802.63
2023-03-19T15:16:38.991Z,100805.34
2023-03-19T15:19:10.859Z,100802.69
2023-03-19T15:21:39.521Z,100798.66
2023-03-19T15:24:13.846Z,100803.03
2023-03-19T15:26:41.481Z,100797.69
2023-03-19T15:29:12.315Z,100788.78
2023-03-19T15:32:02.590Z,100783.47
2023-03-19T15:34:31.768Z,100805.03
2023-03-19T15:37:05.601Z,100802.56
2023-03-19T15:39:41.795Z,100801.75
2023-03-19T15:42:09.413Z,100801.41
2023-03-19T15:44:43.272Z,100795.38
2023-03-19T15:47:16.995Z,100795.22
2023-03-19T15:49:58.478Z,100794.13
2023-03-19T15:52:26.448Z,100795.63
2023-03-19T15:54:56.139Z,100794.25
2023-03-19T15:57:24.684Z,100789.13
2023-03-19T15:59:56.900Z,100792.16
2023-03-19T16:02:31.035Z,100784.28
2023-03-19T16:05:22.469Z,100776.13
2023-03-19T16:07:55.025Z,100782.59
2023-03-19T16:10:46.072Z,100781.03
2023-03-19T16:13:39.949Z,100786.22
2023-03-19T16:16:24.106Z,100786.13
2023-03-19T16:18:54.001Z,100800.50
2023-03-19T16:21:28.660Z,100806.59
2023-03-19T16:24:00.183Z,100811.16
2023-03-19T16:26:48.315Z,100821.59
2023-03-19T16:29:21.141Z,100817.56
2023-03-19T16:31:53.719Z,100822.84
2023-03-19T16:34:23.669Z,100817.72
2023-03-19T16:36:50.804Z,100822.31
2023-03-19T16:39:24.742Z,100821.56
2023-03-19T16:42:37.638Z,100831.53
2023-03-19T16:45:20.616Z,100823.06
2023-03-19T16:47:49.058Z,100824.44
2023-03-19T16:50:18.227Z,100838.59
2023-03-19T16:52:47.232Z,100835.22
2023-03-19T16:55:32.484Z,100830.53
2023-03-19T16:58:02.226Z,100847.63
2023-03-19T17:00:31.948Z,100851.75
2023-03-19T17:03:00.034Z,100862.22
2023-03-19T17:05:28.832Z,100869.56
2023-03-19T17:07:56.268Z,100865.66
2023-03-19T17:10:27.035Z,100861.81
2023-03-19T17:12:55.333Z,100857.34
2023-03-19T17:15:34.408Z,100855.22
2023-03-19T17:18:03.169Z,100860.22
2023-03-19T17:20:38.638Z,100851.09
2023-03-19T17:23:13.746Z,100843.84
2023-03-19T17:25:41.189Z,100834.78
2023-03-19T17:28:08.126Z,100819.69
2023-03-19T17:30:35.323Z,100822.22
2023-03-19T17:33:02.758Z,100825.75
2023-03-19T17:35:29.937Z,100819.47
2023-03-19T17:37:56.997Z,100828.97
2023-03-19T17:40:29.651Z,100813.94
2023-03-19T17:42:56.872Z,100814.72
2023-03-19T17:45:28.968Z,100826.31
2023-03-19T17:47:58.396Z,100824.03
2023-03-19T17:50:31.802Z,100835.94
2023-03-19T17:53:00.315Z,100843.44
2023-03-19T17:55:30.032Z,100838.59
2023-03-19T17:57:57.080Z,100835.22
2023-03-19T18:00:25.088Z,100835.41
2023-03-19T18:02:54.321Z,100839.25
2023-03-19T18:05:23.839Z,100840.44
2023-03-19T18:07:54.029Z,100839.09
2023-03-19T18:10:30.658Z,100839.94
2023-03-19T18:13:00.311Z,100829.50
2023-03-19T18:15:30.218Z,100826.09
2023-03-19T18:17:59.827Z,100813.75
2023-03-19T18:20:35.669Z,100819.09
2023-03-19T18:23:03.280Z,100815.44
2023-03-19T18:25:32.645Z,100823.44
2023-03-19T18:27:59.570Z,100822.56
2023-03-19T18:30:26.527Z,100822.38
2023-03-19T18:32:57.975Z,100811.84
2023-03-19T18:35:31.247Z,100818.84
2023-03-19T18:37:59.126Z,100819.69
2023-03-19T18:40:28.848Z,100821.28
2023-03-19T18:42:56.631Z,100829.28
2023-03-19T18:45:27.291Z,100821.19
2023-03-19T18:47:55.262Z,100824.72
2023-03-19T18:50:23.822Z,100823.75
2023-03-19T18:52:52.687Z,100843.13
2023-03-19T18:55:21.027Z,100837.78
2023-03-19T18:57:54.240Z,100835.25
2023-03-19T19:00:33.878Z,100842.50
2023-03-19T19:03:02.238Z,100839.72
2023-03-19T19:05:33.203Z,100837.78
2023-03-19T19:08:03.137Z,100836.84
2023-03-19T19:10:33.150Z,100844.63
2023-03-19T19:13:01.355Z,100846.34
2023-03-19T19:15:36.639Z,100854.31
2023-03-19T19:18:16.506Z,100849.22
2023-03-19T19:20:46.485Z,100850.81
2023-03-19T19:23:15.085Z,100860.47
2023-03-19T19:25:44.901Z,100854.63
2023-03-19T19:28:21.609Z,100865.06
2023-03-19T19:30:49.964Z,100865.19
2023-03-19T19:33:23.537Z,100858.66
2023-03-19T19:35:52.574Z,100854.94
2023-03-19T19:38:21.220Z,100846.09
2023-03-19T19:40:51.527Z,100845.16
2023-03-19T19:43:21.794Z,100843.13
2023-03-19T19:45:51.981Z,100846.41
2023-03-19T19:48:23.449Z,100854.38
2023-03-19T19:50:52.014Z,100844.38
2023-03-19T19:53:19.549Z,100845.88
2023-03-19T19:55:47.778Z,100849.69
2023-03-19T19:58:19.168Z,100850.53
2023-03-19T20:01:00.167Z,100842.66
2023-03-19T20:03:32.951Z,100846.06
2023-03-19T20:06:01.169Z,100846.47
2023-03-19T20:08:29.101Z,100849.16
2023-03-19T20:10:57.464Z,100847.22
2023-03-19T20:13:28.022Z,100851.38
2023-03-19T20:15:59.416Z,100856.50
2023-03-19T20:18:31.069Z,100862.69
2023-03-19T20:20:59.845Z,100858.97
2023-03-19T20:23:27.507Z,100849.75
2023-03-19T20:25:56.145Z,100852.44
2023-03-19T20:28:27.571Z,100859.47
2023-03-19T20:30:55.560Z,100863.81
2023-03-19T20:33:23.161Z,100861.91
2023-03-19T20:35:51.192Z,100857.31
2023-03-19T20:38:18.346Z,100849.84
2023-03-19T20:40:54.860Z,100859.84
2023-03-19T20:43:35.022Z,100862.63
2023-03-19T20:46:05.261Z,100857.63
2023-03-19T20:48:33.870Z,100847.06
2023-03-19T20:51:02.824Z,100859.66
2023-03-19T20:53:30.537Z,100857.72
2023-03-19T20:55:57.938Z,100853.25
2023-03-19T20:58:29.982Z,100855.06
2023-03-19T21:00:59.108Z,100861.25
2023-03-19T21:03:29.554Z,100849.84
2023-03-19T21:06:14.797Z,100849.13
2023-03-19T21:08:48.617Z,100848.13
2023-03-19T21:11:18.846Z,100847.91
2023-03-19T21:13:49.265Z,100853.09
2023-03-19T21:16:22.779Z,100845.13
2023-03-19T21:18:52.193Z,100850.09
2023-03-19T21:21:32.358Z,100853.72
2023-03-19T21:24:18.712Z,100866.94
2023-03-19T21:26:47.543Z,100851.91
2023-03-19T21:29:28.261Z,100850.97
2023-03-19T21:31:57.162Z,100847.53
2023-03-19T21:34:25.774Z,100837.75
2023-03-19T21:36:53.252Z,100839.53
2023-03-19T21:39:20.574Z,100845.00
2023-03-19T21:41:51.957Z,100855.66
2023-03-19T21:44:24.948Z,100858.66
2023-03-19T21:46:53.134Z,100856.94
2023-03-19T21:49:20.917Z,100858.88
2023-03-19T21:51:47.944Z,100858.00
2023-03-19T21:54:16.951Z,100850.13
2023-03-19T21:56:48.534Z,100856.41
2023-03-19T21:59:23.288Z,100847.69
2023-03-19T22:01:51.690Z,100844.25
2023-03-19T22:04:19.781Z,100850.44
2023-03-19T22:06:47.277Z,100850.56
2023-03-19T22:09:14.585Z,100852.47
2023-03-19T22:11:47.703Z,100843.78
2023-03-19T22:14:18.503Z,100848.44
2023-03-19T22:16:46.923Z,100855.00
2023-03-19T22:19:16.626Z,100854.81
2023-03-19T22:21:43.633Z,100855.44
2023-03-19T22:24:10.748Z,100861.19
2023-03-19T22:26:43.383Z,100861.69
2023-03-19T22:29:23.960Z,100849.78
2023-03-19T22:31:53.102Z,100854.44
2023-03-19T22:34:23.834Z,100840.41
2023-03-19T22:36:51.457Z,100838.13
2023-03-19T22:39:20.551Z,100836.53
2023-03-19T22:41:49.340Z,100845.56
2023-03-19T22:44:26.683Z,100840.69
2023-03-19T22:46:55.258Z,100832.06
2023-03-19T22:49:23.898Z,100834.19
2023-03-19T22:51:51.883Z,100833.63
2023-03-19T22:54:20.757Z,100829.38
2023-03-19T22:56:48.460Z,100828.81
2023-03-19T22:59:16.978Z,100829.84
2023-03-19T23:01:46.763Z,100832.75
2023-03-19T23:04:24.311Z,100825.88
2023-03-19T23:06:54.353Z,100831.38
2023-03-19T23:09:34.695Z,100832.56
2023-03-19T23:14:34.938Z,100826.69
2023-03-19T23:17:04.729Z,100839.19
2023-03-19T23:19:34.527Z,100835.81
2023-03-19T23:22:03.720Z,100827.16
2023-03-19T23:24:31.122Z,100824.63
2023-03-19T23:26:59.996Z,100825.69
2023-03-19T23:29:34.715Z,100815.38
2023-03-19T23:32:02.190Z,100822.56
2023-03-19T23:34:29.180Z,100824.47
2023-03-19T23:36:57.172Z,100826.38
2023-03-19T23:39:24.379Z,100822.97
2023-03-19T23:41:56.192Z,100823.16
2023-03-19T23:44:23.884Z,100826.75
2023-03-19T23:46:51.926Z,100822.59
2023-03-19T23:49:32.553Z,100820.16
2023-03-19T23:52:02.127Z,100823.00
2023-03-19T23:54:32.352Z,100811.63
2023-03-19T23:57:02.445Z,100815.22
2023-03-19T23:59:34.585Z,100811.81
